Time;durP1;ratioP1;P1;durP2;ratioP2;P2;SDS_P1;SDS_P2;PMS_P1;PMS_P2;Temp;Humidity;BMP_temperature;BMP_pressure;BME280_temperature;BME280_humidity;BME280_pressure;Samples;Min_cycle;Max_cycle;Signal;HPM_P1;HPM_P2
2021/08/18 00:00:07;;;;;;;5.80;4.43;;;15.70;99.90;;;;;;5008030;28;20271;-49
2021/08/18 00:02:34;;;;;;;6.37;4.50;;;15.80;99.90;;;;;;5007815;28;20328;-49
2021/08/18 00:05:01;;;;;;;8.43;4.80;;;15.80;99.90;;;;;;5007575;28;20245;-49
2021/08/18 00:07:29;;;;;;;8.40;4.77;;;15.70;99.90;;;;;;5008074;28;20294;-49
2021/08/18 00:09:56;;;;;;;6.20;4.77;;;15.80;99.90;;;;;;5007856;28;20690;-49
2021/08/18 00:12:23;;;;;;;10.10;4.27;;;15.80;99.90;;;;;;5008162;28;20237;-49
2021/08/18 00:14:50;;;;;;;8.47;4.50;;;15.70;99.90;;;;;;5007755;28;20209;-49
2021/08/18 00:17:19;;;;;;;8.20;4.93;;;15.60;99.90;;;;;;5007912;28;20715;-49
2021/08/18 00:19:45;;;;;;;7.70;4.70;;;15.60;99.90;;;;;;5005837;28;20725;-49
2021/08/18 00:22:12;;;;;;;6.87;4.57;;;15.60;99.90;;;;;;5007654;28;20252;-49
2021/08/18 00:24:39;;;;;;;9.43;5.07;;;15.70;99.90;;;;;;5007671;28;20299;-49
2021/08/18 00:27:06;;;;;;;6.67;4.70;;;15.70;99.90;;;;;;5008095;28;20625;-49
2021/08/18 00:29:39;;;;;;;10.37;4.80;;;15.70;99.90;;;;;;5007696;28;20220;-49
2021/08/18 00:32:07;;;;;;;6.40;4.50;;;15.80;99.90;;;;;;5007628;28;20290;-49
2021/08/18 00:34:34;;;;;;;6.37;4.57;;;15.70;99.90;;;;;;5006618;28;20292;-49
2021/08/18 00:37:01;;;;;;;10.30;5.10;;;15.70;99.90;;;;;;5007701;28;20636;-49
2021/08/18 00:39:27;;;;;;;6.57;4.80;;;15.70;99.90;;;;;;5007541;28;20639;-48
2021/08/18 00:41:55;;;;;;;10.10;4.67;;;15.70;99.90;;;;;;5007361;28;20288;-49
2021/08/18 00:44:22;;;;;;;9.37;5.37;;;15.60;99.90;;;;;;5006850;28;20299;-49
2021/08/18 00:46:51;;;;;;;10.50;4.70;;;15.60;99.90;;;;;;5007713;28;20286;-48
2021/08/18 00:49:19;;;;;;;6.10;4.13;;;15.60;99.90;;;;;;5006514;28;20290;-48
2021/08/18 00:51:49;;;;;;;7.27;5.17;;;15.60;99.90;;;;;;5007113;28;20313;-48
2021/08/18 00:54:17;;;;;;;6.43;5.07;;;15.60;99.90;;;;;;5007650;28;20276;-48
2021/08/18 00:56:45;;;;;;;8.50;4.23;;;15.70;99.90;;;;;;5007524;28;20589;-48
2021/08/18 00:59:13;;;;;;;5.30;4.10;;;15.70;99.90;;;;;;5005701;28;20268;-48
2021/08/18 01:01:40;;;;;;;7.47;4.40;;;15.70;99.90;;;;;;5007314;28;20331;-48
2021/08/18 01:04:08;;;;;;;10.07;5.50;;;15.70;99.90;;;;;;5007050;28;20293;-48
2021/08/18 01:06:40;;;;;;;7.03;4.60;;;15.70;99.90;;;;;;5009124;28;20680;-49
2021/08/18 01:09:09;;;;;;;7.53;4.43;;;15.70;99.90;;;;;;5008578;28;20301;-48
2021/08/18 01:11:44;;;;;;;8.47;4.27;;;15.70;99.90;;;;;;5006986;28;20245;-48
2021/08/18 01:14:11;;;;;;;7.00;4.80;;;15.70;99.90;;;;;;5007292;28;20775;-49
2021/08/18 01:16:41;;;;;;;8.97;4.13;;;15.70;99.90;;;;;;5007327;28;20669;-49
2021/08/18 01:19:10;;;;;;;7.07;4.10;;;15.70;99.90;;;;;;5006396;28;20237;-49
2021/08/18 01:21:39;;;;;;;5.23;3.47;;;15.70;99.90;;;;;;5007188;28;20241;-48
2021/08/18 01:24:08;;;;;;;7.03;4.10;;;15.70;99.90;;;;;;5007488;28;20291;-48
2021/08/18 01:26:36;;;;;;;4.37;3.30;;;15.80;99.90;;;;;;5006419;28;20292;-48
2021/08/18 01:29:04;;;;;;;5.17;3.67;;;15.70;99.90;;;;;;5006935;28;20314;-48
2021/08/18 01:31:31;;;;;;;4.23;3.13;;;15.70;99.90;;;;;;5013586;28;20311;-49
2021/08/18 01:34:00;;;;;;;4.30;3.00;;;15.80;99.90;;;;;;5006753;28;20204;-49
2021/08/18 01:36:27;;;;;;;5.40;3.40;;;15.80;99.90;;;;;;5006768;28;20289;-48
2021/08/18 01:39:03;;;;;;;9.63;3.43;;;15.80;99.90;;;;;;5006643;28;20295;-48
2021/08/18 01:41:30;;;;;;;5.87;3.77;;;15.80;99.90;;;;;;5021814;28;20281;-49
2021/08/18 01:43:57;;;;;;;6.27;3.33;;;15.80;99.90;;;;;;5006163;28;20253;-49
2021/08/18 01:46:24;;;;;;;7.67;3.73;;;15.80;99.90;;;;;;5007160;28;20948;-49
2021/08/18 01:48:52;;;;;;;6.87;3.77;;;15.80;99.90;;;;;;5006248;28;20241;-49
2021/08/18 01:51:19;;;;;;;5.47;3.43;;;15.80;99.90;;;;;;5006695;28;20235;-49
2021/08/18 01:53:47;;;;;;;5.80;3.33;;;15.80;99.90;;;;;;5006930;28;20690;-48
2021/08/18 01:56:18;;;;;;;4.43;3.63;;;15.80;99.90;;;;;;5006800;28;20210;-49
2021/08/18 01:58:45;;;;;;;5.57;3.20;;;15.80;99.90;;;;;;5006798;28;20704;-48
2021/08/18 02:01:15;;;;;;;7.37;3.53;;;15.70;99.90;;;;;;5006644;28;20307;-49
2021/08/18 02:03:43;;;;;;;5.50;3.40;;;15.80;99.90;;;;;;5006677;28;20222;-48
2021/08/18 02:06:10;;;;;;;4.33;3.10;;;15.80;99.90;;;;;;5006200;28;20247;-48
2021/08/18 02:08:37;;;;;;;6.93;3.27;;;15.90;99.90;;;;;;5006273;28;20744;-48
2021/08/18 02:11:04;;;;;;;6.17;3.30;;;15.90;99.90;;;;;;5006109;28;20229;-49
2021/08/18 02:13:32;;;;;;;7.40;4.13;;;15.80;99.90;;;;;;5022802;28;20675;-48
2021/08/18 02:15:59;;;;;;;9.77;3.23;;;15.80;99.90;;;;;;5009906;28;20293;-49
2021/08/18 02:18:27;;;;;;;7.47;3.70;;;15.80;99.90;;;;;;5009946;28;20198;-49
2021/08/18 02:20:54;;;;;;;5.90;3.93;;;15.90;99.90;;;;;;5009141;28;20208;-49
2021/08/18 02:23:21;;;;;;;5.73;3.00;;;15.90;99.90;;;;;;5010105;28;20294;-49
2021/08/18 02:25:48;;;;;;;6.13;3.50;;;15.90;99.90;;;;;;5009980;28;20633;-48
2021/08/18 02:28:16;;;;;;;6.00;3.20;;;15.90;99.90;;;;;;5009792;28;20221;-49
2021/08/18 02:30:43;;;;;;;4.13;3.13;;;15.90;99.90;;;;;;5009661;28;20294;-49
2021/08/18 02:33:10;;;;;;;9.60;3.67;;;15.90;99.90;;;;;;5009682;28;20354;-49
2021/08/18 02:35:37;;;;;;;10.73;3.40;;;15.90;99.90;;;;;;5008960;28;20286;-48
2021/08/18 02:38:06;;;;;;;4.80;3.60;;;15.90;99.90;;;;;;5008631;28;20643;-48
2021/08/18 02:40:33;;;;;;;5.67;3.27;;;15.90;99.90;;;;;;5009779;28;20227;-48
2021/08/18 02:43:00;;;;;;;6.43;3.30;;;15.80;99.90;;;;;;5009714;28;20253;-48
2021/08/18 02:45:29;;;;;;;6.63;3.73;;;15.80;99.90;;;;;;5009664;28;20200;-49
2021/08/18 02:47:56;;;;;;;6.87;3.10;;;15.80;99.90;;;;;;5009272;28;20681;-49
2021/08/18 02:50:25;;;;;;;5.13;3.37;;;15.70;99.90;;;;;;5008557;28;20254;-49
2021/08/18 02:52:52;;;;;;;10.20;3.50;;;15.80;99.90;;;;;;5009134;28;20260;-48
2021/08/18 02:55:19;;;;;;;6.13;4.03;;;15.80;99.90;;;;;;5009772;28;20234;-49
2021/08/18 02:57:46;;;;;;;7.50;4.00;;;15.80;99.90;;;;;;5008922;28;20635;-48
2021/08/18 03:00:14;;;;;;;5.83;3.83;;;15.80;99.90;;;;;;5009686;28;20673;-49
2021/08/18 03:02:41;;;;;;;4.50;3.60;;;15.70;99.90;;;;;;5008940;28;21141;-49
2021/08/18 03:05:09;;;;;;;6.93;3.70;;;15.70;99.90;;;;;;5009364;28;20816;-49
2021/08/18 03:07:36;;;;;;;4.70;3.63;;;15.70;99.90;;;;;;5009163;28;20673;-48
2021/08/18 03:10:03;;;;;;;10.77;4.57;;;15.70;99.90;;;;;;5008628;28;20310;-49
2021/08/18 03:12:30;;;;;;;8.87;4.40;;;15.70;99.90;;;;;;5008638;28;20306;-48
2021/08/18 03:14:57;;;;;;;8.43;4.30;;;15.80;99.90;;;;;;5008822;28;20211;-48
2021/08/18 03:17:24;;;;;;;5.77;4.73;;;15.80;99.90;;;;;;5008909;28;20336;-49
2021/08/18 03:19:51;;;;;;;9.53;4.87;;;15.80;99.90;;;;;;5006781;28;20205;-49
2021/08/18 03:22:17;;;;;;;7.67;4.63;;;15.70;99.90;;;;;;5007753;28;20651;-48
2021/08/18 03:24:44;;;;;;;6.90;4.60;;;15.70;99.90;;;;;;5007894;28;20245;-48
2021/08/18 03:27:11;;;;;;;9.13;4.67;;;15.70;99.90;;;;;;5008425;28;20256;-49
2021/08/18 03:29:38;;;;;;;7.10;3.87;;;15.80;99.90;;;;;;5008078;28;20306;-49
2021/08/18 03:32:05;;;;;;;6.77;4.37;;;15.80;99.90;;;;;;5008676;28;20265;-49
2021/08/18 03:34:32;;;;;;;9.17;5.10;;;15.80;99.90;;;;;;5007967;28;20284;-49
2021/08/18 03:36:58;;;;;;;5.57;4.30;;;15.80;99.90;;;;;;5008364;28;20256;-49
2021/08/18 03:39:25;;;;;;;7.73;4.50;;;15.80;99.90;;;;;;5008150;28;20243;-49
2021/08/18 03:41:52;;;;;;;8.13;4.57;;;15.80;99.90;;;;;;5007760;28;20249;-48
2021/08/18 03:44:19;;;;;;;9.50;4.13;;;15.90;99.90;;;;;;5007422;28;20244;-49
2021/08/18 03:46:46;;;;;;;8.07;4.77;;;15.80;99.90;;;;;;5007990;28;20524;-49
2021/08/18 03:49:12;;;;;;;5.93;4.10;;;15.90;99.90;;;;;;5007209;28;20665;-49
2021/08/18 03:51:39;;;;;;;7.47;3.90;;;15.80;99.90;;;;;;5008255;28;20609;-48
2021/08/18 03:54:06;;;;;;;7.30;4.23;;;15.80;99.90;;;;;;5007537;28;20503;-48
2021/08/18 03:56:33;;;;;;;5.77;4.23;;;15.80;99.90;;;;;;5007790;28;20245;-49
2021/08/18 03:59:00;;;;;;;6.33;4.07;;;15.80;99.90;;;;;;5008027;28;20306;-48
2021/08/18 04:01:26;;;;;;;7.57;4.30;;;15.80;99.90;;;;;;5008108;28;20246;-49
2021/08/18 04:03:53;;;;;;;6.77;4.83;;;15.80;99.90;;;;;;5007448;28;20329;-49
2021/08/18 04:06:20;;;;;;;9.60;4.47;;;15.80;99.90;;;;;;5007652;28;20807;-49
2021/08/18 04:08:47;;;;;;;5.93;4.00;;;15.90;99.90;;;;;;5007789;28;20261;-49
2021/08/18 04:11:14;;;;;;;8.83;4.73;;;15.90;99.90;;;;;;5007427;28;20195;-49
2021/08/18 04:13:40;;;;;;;7.83;4.23;;;15.90;99.90;;;;;;5008216;28;20298;-49
2021/08/18 04:16:07;;;;;;;10.17;4.40;;;16.00;99.90;;;;;;5007601;28;20204;-49
2021/08/18 04:18:34;;;;;;;9.33;4.70;;;15.90;99.90;;;;;;5007242;28;20200;-50
2021/08/18 04:21:01;;;;;;;7.90;4.63;;;15.90;99.90;;;;;;5005539;28;20260;-49
2021/08/18 04:23:28;;;;;;;7.23;4.70;;;15.80;99.90;;;;;;5007539;28;20292;-49
2021/08/18 04:25:54;;;;;;;7.90;4.77;;;15.80;99.90;;;;;;5007228;28;20250;-49
2021/08/18 04:28:21;;;;;;;7.97;4.97;;;15.90;99.90;;;;;;5007530;28;20644;-49
2021/08/18 04:30:49;;;;;;;9.77;4.57;;;15.80;99.90;;;;;;5006803;28;20306;-49
2021/08/18 04:33:16;;;;;;;7.70;4.90;;;15.80;99.90;;;;;;5007410;28;20208;-49
2021/08/18 04:35:43;;;;;;;8.47;4.37;;;15.90;99.90;;;;;;5006693;28;20212;-49
2021/08/18 04:38:10;;;;;;;9.23;5.00;;;16.00;99.90;;;;;;5007320;28;20329;-49
2021/08/18 04:40:37;;;;;;;12.23;4.77;;;16.00;99.90;;;;;;5007111;28;20257;-48
2021/08/18 04:43:03;;;;;;;11.07;5.00;;;15.90;99.90;;;;;;5005802;28;20297;-49
2021/08/18 04:45:30;;;;;;;13.13;4.50;;;15.90;99.90;;;;;;5007026;28;20293;-49
2021/08/18 04:47:57;;;;;;;7.10;4.77;;;15.90;99.90;;;;;;5006694;28;20211;-49
2021/08/18 04:50:25;;;;;;;6.03;4.60;;;15.90;99.90;;;;;;5006838;28;20313;-49
2021/08/18 04:52:52;;;;;;;5.63;4.73;;;16.00;99.90;;;;;;5007570;28;20226;-49
2021/08/18 04:55:20;;;;;;;13.60;4.83;;;16.00;99.90;;;;;;5007086;28;20219;-49
2021/08/18 04:57:47;;;;;;;8.70;5.07;;;15.90;99.90;;;;;;5006962;28;20590;-50
2021/08/18 05:00:16;;;;;;;8.17;4.80;;;15.90;99.90;;;;;;5006706;28;20660;-49
2021/08/18 05:02:45;;;;;;;6.33;5.00;;;15.90;99.90;;;;;;5006793;28;20198;-49
2021/08/18 05:05:12;;;;;;;12.20;4.80;;;15.90;99.90;;;;;;5006612;28;20237;-49
2021/08/18 05:07:39;;;;;;;7.40;4.70;;;15.90;99.90;;;;;;5007104;28;20456;-49
2021/08/18 05:10:06;;;;;;;7.40;5.13;;;15.90;99.90;;;;;;5006487;28;20320;-49
2021/08/18 05:12:33;;;;;;;7.03;5.20;;;15.90;99.90;;;;;;5006781;28;20241;-49
2021/08/18 05:15:00;;;;;;;6.83;4.83;;;15.90;99.90;;;;;;5006481;28;20248;-49
2021/08/18 05:17:26;;;;;;;6.33;4.53;;;15.90;99.90;;;;;;5006201;28;20276;-50
2021/08/18 05:19:53;;;;;;;9.87;4.93;;;15.90;99.90;;;;;;5004747;28;20205;-50
2021/08/18 05:22:20;;;;;;;13.07;5.47;;;16.10;99.90;;;;;;5005925;28;20263;-50
2021/08/18 05:24:47;;;;;;;9.50;5.37;;;16.00;99.90;;;;;;5006150;28;20234;-49
2021/08/18 05:27:14;;;;;;;7.00;5.00;;;16.00;99.90;;;;;;5006687;28;20290;-49
2021/08/18 05:29:40;;;;;;;8.43;4.93;;;16.00;99.90;;;;;;5006557;28;20302;-50
2021/08/18 05:32:07;;;;;;;6.03;5.17;;;16.00;99.90;;;;;;5006618;28;20305;-49
2021/08/18 05:34:34;;;;;;;15.70;5.47;;;16.00;99.90;;;;;;5006632;28;20687;-49
2021/08/18 05:37:01;;;;;;;12.30;5.57;;;16.10;99.90;;;;;;5006761;28;20208;-50
2021/08/18 05:39:28;;;;;;;12.80;6.30;;;16.10;99.90;;;;;;5006067;28;20307;-49
2021/08/18 05:41:55;;;;;;;11.70;6.20;;;16.20;99.90;;;;;;5006420;28;20678;-49
2021/08/18 05:44:21;;;;;;;10.73;6.30;;;16.10;99.90;;;;;;5006487;28;20289;-50
2021/08/18 05:46:49;;;;;;;11.73;6.07;;;16.20;99.90;;;;;;5007060;28;20204;-49
2021/08/18 05:49:20;;;;;;;10.03;5.80;;;16.10;99.90;;;;;;5008122;28;20806;-49
2021/08/18 05:51:50;;;;;;;12.40;6.60;;;16.10;99.90;;;;;;5010172;28;20732;-49
2021/08/18 05:54:18;;;;;;;10.10;6.93;;;16.20;99.90;;;;;;5009996;28;20624;-49
2021/08/18 05:56:44;;;;;;;11.80;6.73;;;16.10;99.90;;;;;;5010295;28;20208;-49
2021/08/18 05:59:11;;;;;;;9.43;6.70;;;16.20;99.90;;;;;;5010631;28;20715;-49
2021/08/18 06:01:38;;;;;;;10.93;7.40;;;16.30;99.90;;;;;;5006198;28;20724;-49
2021/08/18 06:04:05;;;;;;;10.80;6.97;;;16.30;99.90;;;;;;5009606;28;20210;-49
2021/08/18 06:06:32;;;;;;;10.27;7.13;;;16.30;99.90;;;;;;5010428;28;20318;-49
2021/08/18 06:08:58;;;;;;;15.53;7.63;;;16.30;99.90;;;;;;5015923;28;20233;-48
2021/08/18 06:11:26;;;;;;;10.90;6.90;;;16.30;99.90;;;;;;5010315;28;20294;-49
2021/08/18 06:13:53;;;;;;;13.10;7.97;;;16.30;99.90;;;;;;5010079;28;20205;-49
2021/08/18 06:16:20;;;;;;;12.83;7.97;;;16.30;99.90;;;;;;5010023;28;20257;-49
2021/08/18 06:18:48;;;;;;;9.50;7.33;;;16.20;99.90;;;;;;5009212;28;20209;-48
2021/08/18 06:21:15;;;;;;;11.43;8.00;;;16.30;99.90;;;;;;5009733;28;20250;-49
2021/08/18 06:23:44;;;;;;;13.87;8.90;;;16.40;99.90;;;;;;5009388;28;20206;-48
2021/08/18 06:26:10;;;;;;;13.93;8.03;;;16.40;99.90;;;;;;5009652;28;20210;-49
2021/08/18 06:28:37;;;;;;;13.00;8.53;;;16.40;99.90;;;;;;5010157;28;20707;-49
2021/08/18 06:31:04;;;;;;;14.47;9.13;;;16.40;99.90;;;;;;5009129;28;20311;-49
2021/08/18 06:33:31;;;;;;;13.70;8.10;;;16.60;99.90;;;;;;5009592;28;20211;-49
2021/08/18 06:35:58;;;;;;;13.67;9.23;;;16.50;99.90;;;;;;5009015;28;20243;-48
2021/08/18 06:38:24;;;;;;;14.40;9.33;;;16.50;99.90;;;;;;5009167;28;20210;-48
2021/08/18 06:40:51;;;;;;;12.27;9.30;;;16.50;99.90;;;;;;5009147;28;20206;-49
2021/08/18 06:43:18;;;;;;;12.93;8.97;;;16.60;99.90;;;;;;5009244;28;20622;-49
2021/08/18 06:45:45;;;;;;;14.93;9.17;;;16.60;99.90;;;;;;5008645;28;20745;-49
2021/08/18 06:48:12;;;;;;;12.67;8.50;;;16.70;99.90;;;;;;5008461;28;20272;-49
2021/08/18 06:50:39;;;;;;;15.27;9.17;;;16.70;99.90;;;;;;5008313;28;20253;-49
2021/08/18 06:53:05;;;;;;;11.07;7.97;;;16.70;99.90;;;;;;5009728;28;20284;-48
2021/08/18 06:55:34;;;;;;;14.27;8.80;;;16.70;99.90;;;;;;5009344;28;20539;-48
2021/08/18 06:58:01;;;;;;;13.10;8.10;;;16.80;99.90;;;;;;5009015;28;20204;-49
2021/08/18 07:00:28;;;;;;;12.67;7.50;;;16.80;99.90;;;;;;5007746;28;20212;-49
2021/08/18 07:02:55;;;;;;;13.77;7.93;;;16.80;99.90;;;;;;5009069;28;20716;-49
2021/08/18 07:05:23;;;;;;;12.97;8.80;;;16.90;99.90;;;;;;5014921;28;20770;-49
2021/08/18 07:07:50;;;;;;;12.17;8.30;;;16.90;99.90;;;;;;5008782;28;20249;-49
2021/08/18 07:10:16;;;;;;;13.57;8.40;;;16.80;99.90;;;;;;5008840;28;20923;-49
2021/08/18 07:12:44;;;;;;;10.07;7.67;;;16.90;99.90;;;;;;5008990;28;20233;-49
2021/08/18 07:15:12;;;;;;;14.50;8.40;;;16.90;99.90;;;;;;5009087;28;20492;-49
2021/08/18 07:17:39;;;;;;;13.13;9.03;;;17.00;99.90;;;;;;5009261;28;20205;-49
2021/08/18 07:20:07;;;;;;;12.50;8.93;;;17.00;99.90;;;;;;5008578;28;20302;-49
2021/08/18 07:22:34;;;;;;;11.70;8.33;;;17.00;99.90;;;;;;5008843;28;20739;-49
2021/08/18 07:25:00;;;;;;;13.53;9.50;;;17.10;99.90;;;;;;5008874;28;20685;-48
2021/08/18 07:27:27;;;;;;;12.03;9.13;;;17.10;99.90;;;;;;5008793;28;20238;-48
2021/08/18 07:29:56;;;;;;;13.90;9.63;;;17.10;99.90;;;;;;5008582;28;20221;-48
2021/08/18 07:32:25;;;;;;;18.03;10.37;;;17.10;99.90;;;;;;5008833;28;20697;-49
2021/08/18 07:34:52;;;;;;;11.07;8.17;;;17.00;99.90;;;;;;5008491;28;20309;-49
2021/08/18 07:37:19;;;;;;;14.27;8.93;;;17.20;99.90;;;;;;5009235;28;20212;-49
2021/08/18 07:39:46;;;;;;;13.57;9.43;;;17.20;99.90;;;;;;5008346;28;20266;-49
2021/08/18 07:42:13;;;;;;;15.40;9.33;;;17.30;99.90;;;;;;5008473;28;20219;-49
2021/08/18 07:44:49;;;;;;;14.20;9.10;;;17.30;99.90;;;;;;5007824;28;20684;-49
2021/08/18 07:47:29;;;;;;;16.43;9.43;;;17.30;99.90;;;;;;5007405;28;20215;-48
2021/08/18 07:49:56;;;;;;;13.57;9.43;;;17.30;99.90;;;;;;5013604;28;20518;-50
2021/08/18 07:52:23;;;;;;;15.70;10.03;;;17.40;99.90;;;;;;5008351;28;20290;-48
2021/08/18 07:54:50;;;;;;;15.83;8.93;;;17.40;99.90;;;;;;5008285;28;20626;-50
2021/08/18 07:57:17;;;;;;;12.83;9.40;;;17.40;99.90;;;;;;5008425;28;20233;-49
2021/08/18 07:59:44;;;;;;;12.97;9.90;;;17.50;99.90;;;;;;5008673;28;20305;-47
2021/08/18 08:02:11;;;;;;;13.40;9.20;;;17.40;99.90;;;;;;5009174;28;20281;-48
2021/08/18 08:04:38;;;;;;;12.27;8.87;;;17.50;99.90;;;;;;5007952;28;20313;-49
2021/08/18 08:07:05;;;;;;;10.70;8.63;;;17.60;99.90;;;;;;5008024;28;20305;-48
2021/08/18 08:09:32;;;;;;;13.20;8.27;;;17.60;99.90;;;;;;5007722;28;20198;-48
2021/08/18 08:11:58;;;;;;;12.70;8.83;;;17.70;99.90;;;;;;5007573;28;20246;-48
2021/08/18 08:14:25;;;;;;;15.07;9.67;;;17.70;99.90;;;;;;5007557;28;20757;-48
2021/08/18 08:16:52;;;;;;;12.40;9.37;;;17.80;99.90;;;;;;5007512;28;20339;-48
2021/08/18 08:19:19;;;;;;;13.33;9.07;;;17.80;99.90;;;;;;5006816;28;20252;-48
2021/08/18 08:21:45;;;;;;;13.20;8.73;;;17.80;99.90;;;;;;5007761;28;20229;-48
2021/08/18 08:24:12;;;;;;;12.57;9.23;;;17.80;99.90;;;;;;5007486;28;20254;-48
2021/08/18 08:26:39;;;;;;;13.03;9.13;;;17.90;99.90;;;;;;5007923;28;20265;-50
2021/08/18 08:29:06;;;;;;;10.73;8.63;;;17.90;99.90;;;;;;5014204;28;20268;-50
2021/08/18 08:31:33;;;;;;;11.97;8.63;;;17.90;99.90;;;;;;5007522;28;20244;-48
2021/08/18 08:34:00;;;;;;;12.80;9.20;;;18.10;99.90;;;;;;5007051;28;20207;-49
2021/08/18 08:36:27;;;;;;;10.50;7.90;;;18.10;99.90;;;;;;5007085;28;20666;-48
2021/08/18 08:38:53;;;;;;;10.27;7.63;;;18.10;99.90;;;;;;5006965;28;20269;-49
2021/08/18 08:41:21;;;;;;;11.33;8.30;;;18.20;99.90;;;;;;5007812;28;20303;-48
2021/08/18 08:43:48;;;;;;;12.40;8.13;;;18.20;99.90;;;;;;5012627;28;20296;-49
2021/08/18 08:46:15;;;;;;;14.93;8.07;;;18.10;99.90;;;;;;5007110;28;20299;-49
2021/08/18 08:48:42;;;;;;;10.63;7.20;;;18.30;99.90;;;;;;5006504;28;20329;-48
2021/08/18 08:51:10;;;;;;;10.13;7.97;;;18.10;99.90;;;;;;5006806;28;20335;-49
2021/08/18 08:53:38;;;;;;;12.13;7.90;;;18.30;99.90;;;;;;5007332;28;20574;-49
2021/08/18 08:56:08;;;;;;;14.40;7.73;;;18.30;99.90;;;;;;5006942;28;20286;-49
2021/08/18 08:58:35;;;;;;;10.00;6.57;;;18.20;99.90;;;;;;5006391;28;20311;-49
2021/08/18 09:01:02;;;;;;;9.70;7.33;;;18.30;99.90;;;;;;5006818;28;20664;-48
2021/08/18 09:03:30;;;;;;;8.30;6.10;;;18.20;99.90;;;;;;5007187;28;20291;-49
2021/08/18 09:06:04;;;;;;;9.60;6.47;;;18.20;99.90;;;;;;5006303;28;20204;-49
2021/08/18 09:08:31;;;;;;;8.80;6.60;;;18.20;99.90;;;;;;5006449;28;20220;-49
2021/08/18 09:11:13;;;;;;;6.57;5.83;;;18.20;99.90;;;;;;5006215;28;20223;-49
2021/08/18 09:13:42;;;;;;;7.70;6.00;;;18.10;99.90;;;;;;5006818;28;20248;-49
2021/08/18 09:16:10;;;;;;;6.27;5.50;;;18.30;99.90;;;;;;5006772;28;20700;-48
2021/08/18 09:18:46;;;;;;;7.37;5.37;;;18.50;99.90;;;;;;5006448;28;20211;-48
2021/08/18 09:21:37;;;;;;;5.93;4.93;;;18.60;99.90;;;;;;5006810;28;20709;-49
2021/08/18 09:24:16;;;;;;;2.90;2.60;;;18.50;99.90;;;;;;5005245;28;20256;-50
2021/08/18 09:26:49;;;;;;;3.50;2.20;;;18.30;99.90;;;;;;5006462;28;20301;-49
2021/08/18 09:29:25;;;;;;;3.40;2.80;;;18.30;99.90;;;;;;5006326;28;20239;-49
2021/08/18 09:31:52;;;;;;;3.70;3.30;;;18.30;99.90;;;;;;5006216;28;20319;-49
2021/08/18 09:34:19;;;;;;;7.13;3.73;;;18.40;99.90;;;;;;5006244;28;20273;-49
2021/08/18 09:36:45;;;;;;;4.20;3.27;;;18.30;99.90;;;;;;5006550;28;20680;-49
2021/08/18 09:39:22;;;;;;;5.00;3.47;;;18.40;99.90;;;;;;5006622;28;20211;-49
2021/08/18 09:41:50;;;;;;;4.63;3.70;;;18.30;99.90;;;;;;5006719;28;20229;-48
2021/08/18 09:44:18;;;;;;;4.63;3.73;;;18.10;99.90;;;;;;5005679;28;20684;-49
2021/08/18 09:46:48;;;;;;;5.10;3.83;;;18.00;99.90;;;;;;5006345;28;20253;-49
2021/08/18 09:49:15;;;;;;;4.00;3.20;;;18.00;99.90;;;;;;5005758;28;20761;-48
2021/08/18 09:51:57;;;;;;;5.13;3.90;;;18.00;99.90;;;;;;5006028;28;20292;-49
2021/08/18 09:54:34;;;;;;;4.00;3.57;;;18.00;99.90;;;;;;5006106;28;20715;-49
2021/08/18 09:57:06;;;;;;;4.27;3.87;;;17.80;99.90;;;;;;5006483;28;20294;-48
2021/08/18 09:59:37;;;;;;;5.87;4.53;;;17.70;99.90;;;;;;5006013;28;20826;-49
2021/08/18 10:02:05;;;;;;;6.33;4.77;;;17.60;99.90;;;;;;5006648;28;20664;-49
2021/08/18 10:04:32;;;;;;;6.23;4.67;;;17.70;99.90;;;;;;5006045;28;20223;-49
2021/08/18 10:06:59;;;;;;;6.30;4.00;;;17.60;99.90;;;;;;5007026;28;20233;-49
2021/08/18 10:09:26;;;;;;;5.37;4.53;;;17.50;99.90;;;;;;5006847;28;20291;-49
2021/08/18 10:11:53;;;;;;;8.83;5.80;;;17.40;99.90;;;;;;5006463;28;20301;-49
2021/08/18 10:14:21;;;;;;;6.97;5.40;;;17.70;99.90;;;;;;5006902;28;20727;-48
2021/08/18 10:16:49;;;;;;;9.53;6.07;;;17.90;99.90;;;;;;5006579;28;20617;-49
2021/08/18 10:19:19;;;;;;;9.03;5.97;;;17.80;99.90;;;;;;5012668;28;20684;-48
2021/08/18 10:21:46;;;;;;;7.50;5.73;;;17.90;99.90;;;;;;5006279;28;20272;-48
2021/08/18 10:24:34;;;;;;;8.47;5.83;;;17.90;99.90;;;;;;5006639;28;20242;-48
2021/08/18 10:27:04;;;;;;;7.30;5.80;;;17.90;99.90;;;;;;5006673;28;20593;-48
2021/08/18 10:29:37;;;;;;;8.10;5.80;;;17.90;99.90;;;;;;5006258;28;20238;-48
2021/08/18 10:32:05;;;;;;;8.43;6.10;;;18.10;99.90;;;;;;5005837;28;20257;-48
2021/08/18 10:34:31;;;;;;;8.67;5.67;;;18.20;99.90;;;;;;5006691;28;20289;-49
2021/08/18 10:37:03;;;;;;;8.00;5.90;;;18.00;99.90;;;;;;5010034;28;20198;-49
2021/08/18 10:39:43;;;;;;;8.37;6.57;;;18.30;99.90;;;;;;5009835;28;20231;-49
2021/08/18 10:42:09;;;;;;;9.40;6.90;;;18.40;99.90;;;;;;5010040;28;20250;-49
2021/08/18 10:44:46;;;;;;;8.93;6.30;;;18.50;99.90;;;;;;5008931;28;20307;-49
2021/08/18 10:47:46;;;;;;;7.80;6.10;;;18.60;99.90;;;;;;5009113;28;20676;-48
2021/08/18 10:50:12;;;;;;;10.03;7.03;;;18.50;99.90;;;;;;5011728;28;20247;-49
2021/08/18 10:52:42;;;;;;;7.77;6.60;;;18.40;99.90;;;;;;5009458;28;20261;-50
2021/08/18 10:55:10;;;;;;;9.47;6.90;;;18.50;99.90;;;;;;5009492;28;20202;-48
2021/08/18 10:57:48;;;;;;;8.40;6.57;;;18.50;99.90;;;;;;5009518;28;20250;-48
2021/08/18 11:00:18;;;;;;;8.10;5.90;;;18.50;99.90;;;;;;5009111;28;20773;-49
2021/08/18 11:03:04;;;;;;;7.60;5.37;;;18.70;99.90;;;;;;5008342;28;20304;-48
2021/08/18 11:05:37;;;;;;;8.07;6.07;;;18.50;99.90;;;;;;5008736;28;20205;-48
2021/08/18 11:08:10;;;;;;;6.60;5.13;;;18.60;99.90;;;;;;5009214;28;20526;-50
2021/08/18 11:10:39;;;;;;;7.60;5.97;;;18.50;99.90;;;;;;5008272;28;20311;-51
2021/08/18 11:13:11;;;;;;;6.77;4.73;;;18.40;99.90;;;;;;5008755;28;20239;-49
2021/08/18 11:15:47;;;;;;;6.67;5.27;;;18.40;99.90;;;;;;5008403;28;20368;-51
2021/08/18 11:18:18;;;;;;;5.60;4.97;;;18.50;99.90;;;;;;5008119;28;20285;-48
2021/08/18 11:20:49;;;;;;;9.00;5.77;;;18.60;99.90;;;;;;5007203;28;20719;-49
2021/08/18 11:23:25;;;;;;;8.77;5.80;;;18.40;99.90;;;;;;5008614;28;20863;-48
2021/08/18 11:25:57;;;;;;;7.40;5.93;;;18.40;99.90;;;;;;5008665;28;20588;-48
2021/08/18 11:28:27;;;;;;;7.13;5.83;;;18.50;99.90;;;;;;5008657;28;20293;-49
2021/08/18 11:31:05;;;;;;;7.87;5.67;;;18.60;99.90;;;;;;5007864;28;20310;-49
2021/08/18 11:33:34;;;;;;;6.90;5.00;;;18.70;99.90;;;;;;5008863;28;20211;-48
2021/08/18 11:36:01;;;;;;;8.17;5.50;;;18.70;99.90;;;;;;5007382;28;20209;-47
2021/08/18 11:38:29;;;;;;;8.57;6.13;;;18.70;99.90;;;;;;5007795;28;20237;-49
2021/08/18 11:40:56;;;;;;;7.90;5.47;;;18.50;99.90;;;;;;5007616;28;20239;-48
2021/08/18 11:43:43;;;;;;;9.23;5.63;;;18.50;99.90;;;;;;5007038;28;20676;-49
2021/08/18 11:46:10;;;;;;;7.57;5.27;;;18.60;99.90;;;;;;5007376;28;20762;-49
2021/08/18 11:48:38;;;;;;;9.33;6.13;;;18.70;99.90;;;;;;5007417;28;20311;-49
2021/08/18 11:51:08;;;;;;;8.67;5.90;;;18.80;99.90;;;;;;5006660;28;20254;-48
2021/08/18 11:53:35;;;;;;;7.33;5.87;;;18.80;99.90;;;;;;5007462;28;20232;-49
2021/08/18 11:56:04;;;;;;;12.80;7.30;;;19.00;99.90;;;;;;5007755;28;20201;-49
2021/08/18 11:58:35;;;;;;;7.67;6.23;;;18.90;99.90;;;;;;5006513;28;20200;-49
2021/08/18 12:01:08;;;;;;;7.87;6.00;;;18.90;99.90;;;;;;5007076;28;20235;-49
2021/08/18 12:03:37;;;;;;;10.07;6.13;;;18.90;99.90;;;;;;5007292;28;20677;-49
2021/08/18 12:06:07;;;;;;;8.03;6.10;;;18.90;99.90;;;;;;5006873;28;20197;-49
2021/08/18 12:08:39;;;;;;;6.60;5.57;;;18.90;99.90;;;;;;5007373;28;20253;-49
2021/08/18 12:11:08;;;;;;;6.50;5.63;;;19.10;99.90;;;;;;5007061;28;20248;-49
2021/08/18 12:13:52;;;;;;;7.33;5.83;;;19.20;99.90;;;;;;5008103;28;20310;-49
2021/08/18 12:16:24;;;;;;;6.57;5.17;;;19.10;99.90;;;;;;5007776;28;20303;-49
2021/08/18 12:18:51;;;;;;;7.33;5.17;;;19.20;99.90;;;;;;5006585;28;20200;-49
2021/08/18 12:21:19;;;;;;;10.07;5.90;;;19.30;99.90;;;;;;5007614;28;20693;-49
2021/08/18 12:23:47;;;;;;;8.00;5.83;;;19.40;99.90;;;;;;5006400;28;20255;-48
2021/08/18 12:26:27;;;;;;;7.47;5.13;;;19.50;99.90;;;;;;5006836;28;20272;-49
2021/08/18 12:28:56;;;;;;;7.40;5.80;;;19.50;99.90;;;;;;5007114;28;20298;-48
2021/08/18 12:31:24;;;;;;;10.57;6.10;;;19.50;99.90;;;;;;5006817;28;20316;-48
2021/08/18 12:34:11;;;;;;;6.20;4.33;;;19.40;99.90;;;;;;5006795;28;20211;-48
2021/08/18 12:36:37;;;;;;;7.40;4.20;;;19.30;99.90;;;;;;5007128;28;20314;-49
2021/08/18 12:39:05;;;;;;;5.23;4.17;;;19.30;99.90;;;;;;5006934;28;20339;-48
2021/08/18 12:41:34;;;;;;;4.80;3.67;;;19.30;99.90;;;;;;5006977;28;20330;-48
2021/08/18 12:44:10;;;;;;;5.33;3.87;;;19.30;99.90;;;;;;5006786;28;20204;-49
2021/08/18 12:46:39;;;;;;;4.77;3.47;;;19.40;99.90;;;;;;5006166;28;20204;-48
2021/08/18 12:49:28;;;;;;;4.47;3.60;;;19.60;99.90;;;;;;5006183;28;20716;-49